createdAt,value
2023-01-26T00:00:17.085Z,95.0
2023-01-26T00:01:16.637Z,95.0
2023-01-26T00:02:16.945Z,94.9
2023-01-26T00:03:17.443Z,95.0
2023-01-26T00:04:16.960Z,94.9
2023-01-26T00:05:17.556Z,94.9
2023-01-26T00:06:17.057Z,94.9
2023-01-26T00:07:16.560Z,94.9
2023-01-26T00:08:17.055Z,94.9
2023-01-26T00:09:16.548Z,94.8
2023-01-26T00:10:17.039Z,94.8
2023-01-26T00:11:16.544Z,94.7
2023-01-26T00:12:17.303Z,94.7
2023-01-26T00:13:16.789Z,94.8
2023-01-26T00:14:17.302Z,94.6
2023-01-26T00:15:16.822Z,94.6
2023-01-26T00:16:17.518Z,94.7
2023-01-26T00:17:17.071Z,94.8
2023-01-26T00:18:16.607Z,94.8
2023-01-26T00:19:17.123Z,94.7
2023-01-26T00:20:16.629Z,94.8
2023-01-26T00:21:17.134Z,94.8
2023-01-26T00:22:16.567Z,94.8
2023-01-26T00:23:17.043Z,94.7
2023-01-26T00:24:16.604Z,94.6
2023-01-26T00:25:17.071Z,94.6
2023-01-26T00:26:16.583Z,94.6
2023-01-26T00:27:17.085Z,94.6
2023-01-26T00:28:16.671Z,94.5
2023-01-26T00:29:17.223Z,94.4
2023-01-26T00:30:16.759Z,94.4
2023-01-26T00:31:17.375Z,94.5
2023-01-26T00:32:17.003Z,94.5
2023-01-26T00:33:16.530Z,94.7
2023-01-26T00:34:17.020Z,94.9
2023-01-26T00:35:16.503Z,95.0
2023-01-26T00:36:16.988Z,94.9
2023-01-26T00:37:16.500Z,95.0
2023-01-26T00:38:16.981Z,95.0
2023-01-26T00:39:16.495Z,95.0
2023-01-26T00:40:17.020Z,95.0
2023-01-26T00:41:16.516Z,95.0
2023-01-26T00:42:17.090Z,95.0
2023-01-26T00:43:16.576Z,94.9
2023-01-26T00:44:17.084Z,94.8
2023-01-26T00:45:16.611Z,94.8
2023-01-26T00:46:17.170Z,94.8
2023-01-26T00:47:16.686Z,94.8
2023-01-26T00:48:17.198Z,94.8
2023-01-26T00:49:16.685Z,94.7
2023-01-26T00:50:17.214Z,94.8
2023-01-26T00:51:16.705Z,94.7
2023-01-26T00:52:17.153Z,94.8
2023-01-26T00:53:16.651Z,94.7
2023-01-26T00:54:17.152Z,94.6
2023-01-26T00:55:16.650Z,94.7
2023-01-26T00:56:17.171Z,94.7
2023-01-26T00:57:16.680Z,94.7
2023-01-26T00:58:17.179Z,94.7
2023-01-26T00:59:16.697Z,94.7
2023-01-26T01:00:17.207Z,94.7
2023-01-26T01:01:16.777Z,94.8
2023-01-26T01:02:17.363Z,94.8
2023-01-26T01:03:16.916Z,94.8
2023-01-26T01:04:17.423Z,94.8
2023-01-26T01:05:16.917Z,94.8
2023-01-26T01:06:17.410Z,94.8
2023-01-26T01:07:16.960Z,94.7
2023-01-26T01:08:16.479Z,94.7
2023-01-26T01:09:16.973Z,94.7
2023-01-26T01:10:16.460Z,94.6
2023-01-26T01:11:16.962Z,94.7
2023-01-26T01:12:17.476Z,94.7
2023-01-26T01:13:16.988Z,94.7
2023-01-26T01:14:16.464Z,94.6
2023-01-26T01:15:16.989Z,94.7
2023-01-26T01:16:16.722Z,94.7
2023-01-26T01:17:17.269Z,94.8
2023-01-26T01:18:16.774Z,94.8
2023-01-26T01:19:17.285Z,94.8
2023-01-26T01:20:16.864Z,94.8
2023-01-26T01:21:17.385Z,94.8
2023-01-26T01:22:16.755Z,94.7
2023-01-26T01:23:17.282Z,94.7
2023-01-26T01:24:16.867Z,94.7
2023-01-26T01:25:17.387Z,94.7
2023-01-26T01:26:16.889Z,94.7
2023-01-26T01:27:17.414Z,94.9
2023-01-26T01:28:16.915Z,95.0
2023-01-26T01:29:17.419Z,95.1
2023-01-26T01:30:16.935Z,95.4
2023-01-26T01:31:17.769Z,95.5
2023-01-26T01:32:17.221Z,95.7
2023-01-26T01:33:16.730Z,95.6
2023-01-26T01:34:17.226Z,95.5
2023-01-26T01:35:16.739Z,95.5
2023-01-26T01:36:17.306Z,95.4
2023-01-26T01:37:16.829Z,95.5
2023-01-26T01:38:17.319Z,95.4
2023-01-26T01:40:17.102Z,95.5
2023-01-26T01:41:16.607Z,95.4
2023-01-26T01:42:17.153Z,95.3
2023-01-26T01:43:16.664Z,95.3
2023-01-26T01:44:17.175Z,95.5
2023-01-26T01:45:16.710Z,95.5
2023-01-26T01:46:17.265Z,95.6
2023-01-26T01:47:16.797Z,95.5
2023-01-26T01:48:17.313Z,95.3
2023-01-26T01:49:16.868Z,95.3
2023-01-26T01:50:17.453Z,95.3
2023-01-26T01:51:16.992Z,95.2
2023-01-26T01:52:17.011Z,95.2
2023-01-26T01:53:16.510Z,95.2
2023-01-26T01:54:17.016Z,95.2
2023-01-26T01:55:16.546Z,95.2
2023-01-26T01:56:17.033Z,95.2
2023-01-26T01:57:16.507Z,95.2
2023-01-26T01:58:17.014Z,95.2
2023-01-26T01:59:16.590Z,95.2
2023-01-26T02:00:17.163Z,95.1
2023-01-26T02:01:16.678Z,95.1
2023-01-26T02:02:17.264Z,95.1
2023-01-26T02:03:16.773Z,95.1
2023-01-26T02:04:17.274Z,95.1
2023-01-26T02:05:16.777Z,95.0
2023-01-26T02:06:17.275Z,95.0
2023-01-26T02:07:16.784Z,95.0
2023-01-26T02:08:17.265Z,95.0
2023-01-26T02:09:16.763Z,95.0
2023-01-26T02:10:17.269Z,95.0
2023-01-26T02:11:16.795Z,94.9
2023-01-26T02:12:17.260Z,95.0
2023-01-26T02:13:16.779Z,95.0
2023-01-26T02:14:17.298Z,95.1
2023-01-26T02:15:16.810Z,95.1
2023-01-26T02:16:17.334Z,95.1
2023-01-26T02:17:16.875Z,95.1
2023-01-26T02:18:17.384Z,95.1
2023-01-26T02:19:16.872Z,95.2
2023-01-26T02:20:17.352Z,95.2
2023-01-26T02:21:16.879Z,95.2
2023-01-26T02:22:17.156Z,95.2
2023-01-26T02:23:16.674Z,95.2
2023-01-26T02:24:17.334Z,95.3
2023-01-26T02:25:16.867Z,95.2
2023-01-26T02:26:17.416Z,95.2
2023-01-26T02:27:16.941Z,95.2
2023-01-26T02:28:17.435Z,95.2
2023-01-26T02:29:16.968Z,95.3
2023-01-26T02:30:16.530Z,95.6
2023-01-26T02:31:17.208Z,95.7
2023-01-26T02:32:16.633Z,95.7
2023-01-26T02:33:17.105Z,95.6
2023-01-26T02:34:16.605Z,95.7
2023-01-26T02:35:17.123Z,95.9
2023-01-26T02:36:16.634Z,95.9
2023-01-26T02:37:17.118Z,95.9
2023-01-26T02:38:16.637Z,95.9
2023-01-26T02:39:17.141Z,95.9
2023-01-26T02:40:16.638Z,95.8
2023-01-26T02:41:17.170Z,95.8
2023-01-26T02:42:16.526Z,95.9
2023-01-26T02:43:17.031Z,96.1
2023-01-26T02:44:16.532Z,96.0
2023-01-26T02:45:17.058Z,95.9
2023-01-26T02:46:16.640Z,95.8
2023-01-26T02:47:17.162Z,95.8
2023-01-26T02:48:16.648Z,95.8
2023-01-26T02:49:17.143Z,95.7
2023-01-26T02:50:16.664Z,95.7
2023-01-26T02:51:17.157Z,95.6
2023-01-26T02:52:16.912Z,95.5
2023-01-26T02:53:17.409Z,95.5
2023-01-26T02:54:16.914Z,95.4
2023-01-26T02:55:17.437Z,95.4
2023-01-26T02:56:16.956Z,95.5
2023-01-26T02:57:17.487Z,95.5
2023-01-26T02:58:16.993Z,95.4
2023-01-26T02:59:16.473Z,95.4
2023-01-26T03:00:16.989Z,95.4
2023-01-26T03:01:16.522Z,95.4
2023-01-26T03:02:17.382Z,95.4
2023-01-26T03:03:16.880Z,95.4
2023-01-26T03:04:17.360Z,95.3
2023-01-26T03:05:16.871Z,95.3
2023-01-26T03:06:17.396Z,95.3
2023-01-26T03:07:16.930Z,95.3
2023-01-26T03:08:17.425Z,95.3
2023-01-26T03:09:16.917Z,95.3
2023-01-26T03:10:17.439Z,95.2
2023-01-26T03:11:16.918Z,95.2
2023-01-26T03:12:16.664Z,95.2
2023-01-26T03:13:17.166Z,95.2
2023-01-26T03:14:16.698Z,95.1
2023-01-26T03:15:17.241Z,95.2
2023-01-26T03:16:17.026Z,95.1
2023-01-26T03:17:16.533Z,95.2
2023-01-26T03:18:17.041Z,95.1
2023-01-26T03:19:16.575Z,95.1
2023-01-26T03:20:17.073Z,95.1
2023-01-26T03:21:16.570Z,95.1
2023-01-26T03:22:17.383Z,95.1
2023-01-26T03:23:16.893Z,95.1
2023-01-26T03:24:17.528Z,95.0
2023-01-26T03:25:17.022Z,95.2
2023-01-26T03:26:16.509Z,95.1
2023-01-26T03:27:17.010Z,95.1
2023-01-26T03:28:16.495Z,95.1
2023-01-26T03:29:17.007Z,95.2
2023-01-26T03:30:16.613Z,95.2
2023-01-26T03:31:17.283Z,95.2
2023-01-26T03:32:16.759Z,95.2
2023-01-26T03:33:17.253Z,95.2
2023-01-26T03:34:16.771Z,95.4
2023-01-26T03:35:17.274Z,95.5
2023-01-26T03:36:16.760Z,95.5
2023-01-26T03:37:17.372Z,95.6
2023-01-26T03:38:16.869Z,95.6
2023-01-26T03:39:17.365Z,95.5
2023-01-26T03:40:16.846Z,95.5
2023-01-26T03:41:17.357Z,95.4
2023-01-26T03:42:17.089Z,95.4
2023-01-26T03:43:16.572Z,95.3
2023-01-26T03:44:17.084Z,95.3
2023-01-26T03:45:16.580Z,95.4
2023-01-26T03:46:17.214Z,95.3
2023-01-26T03:47:16.768Z,95.3
2023-01-26T03:48:17.291Z,95.3
2023-01-26T03:49:16.814Z,95.2
2023-01-26T03:50:17.330Z,95.2
2023-01-26T03:51:16.861Z,95.1
2023-01-26T03:52:17.384Z,95.1
2023-01-26T03:53:16.888Z,95.0
2023-01-26T03:54:17.373Z,95.1
2023-01-26T03:55:16.847Z,95.0
2023-01-26T03:56:17.314Z,95.1
2023-01-26T03:57:16.814Z,95.0
2023-01-26T03:58:17.325Z,94.9
2023-01-26T03:59:16.842Z,94.8
2023-01-26T04:00:17.372Z,94.9
2023-01-26T04:01:16.877Z,94.9
2023-01-26T04:02:16.602Z,94.9
2023-01-26T04:03:17.183Z,94.8
2023-01-26T04:04:16.687Z,94.8
2023-01-26T04:05:17.179Z,94.8
2023-01-26T04:06:16.992Z,94.8
2023-01-26T04:07:16.470Z,94.9
2023-01-26T04:08:16.961Z,94.9
2023-01-26T04:09:17.442Z,94.8
2023-01-26T04:10:16.957Z,94.9
2023-01-26T04:11:17.462Z,94.9
2023-01-26T04:12:16.968Z,94.9
2023-01-26T04:13:16.475Z,94.8
2023-01-26T04:14:16.990Z,94.8
2023-01-26T04:15:16.501Z,94.9
2023-01-26T04:16:17.061Z,94.9
2023-01-26T04:17:16.572Z,94.9
2023-01-26T04:18:17.082Z,94.9
2023-01-26T04:19:16.600Z,94.8
2023-01-26T04:20:17.100Z,94.9
2023-01-26T04:21:16.644Z,94.9
2023-01-26T04:22:17.267Z,94.8
2023-01-26T04:23:16.814Z,94.7
2023-01-26T04:24:17.889Z,94.8
2023-01-26T04:25:17.459Z,94.8
2023-01-26T04:26:16.965Z,94.8
2023-01-26T04:27:16.458Z,94.9
2023-01-26T04:28:16.956Z,94.9
2023-01-26T04:29:17.463Z,94.9
2023-01-26T04:30:17.204Z,95.0
2023-01-26T04:31:16.812Z,95.0
2023-01-26T04:32:16.839Z,95.0
2023-01-26T04:33:17.309Z,95.0
2023-01-26T04:34:16.841Z,95.0
2023-01-26T04:35:17.342Z,95.1
2023-01-26T04:36:16.861Z,95.0
2023-01-26T04:37:17.372Z,94.9
2023-01-26T04:38:16.865Z,95.0
2023-01-26T04:39:17.440Z,95.1
2023-01-26T04:40:17.000Z,95.1
2023-01-26T04:41:16.591Z,95.0
2023-01-26T04:42:17.140Z,95.0
2023-01-26T04:43:16.672Z,95.1
2023-01-26T04:44:17.164Z,95.0
2023-01-26T04:45:16.656Z,95.0
2023-01-26T04:46:17.217Z,95.0
2023-01-26T04:47:16.696Z,94.9
2023-01-26T04:48:17.181Z,95.0
2023-01-26T04:49:16.680Z,95.1
2023-01-26T04:50:17.191Z,95.3
2023-01-26T04:51:16.686Z,95.3
2023-01-26T04:52:17.251Z,95.2
2023-01-26T04:53:16.759Z,95.2
2023-01-26T04:54:17.275Z,95.3
2023-01-26T04:55:16.798Z,95.2
2023-01-26T04:56:17.294Z,95.3
2023-01-26T04:57:16.804Z,95.2
2023-01-26T04:58:17.291Z,95.2
2023-01-26T04:59:16.777Z,95.2
2023-01-26T05:00:17.273Z,95.2
2023-01-26T05:01:16.892Z,95.1
2023-01-26T05:02:17.168Z,95.1
2023-01-26T05:03:16.682Z,95.1
2023-01-26T05:04:17.310Z,95.1
2023-01-26T05:05:16.818Z,95.1
2023-01-26T05:06:17.361Z,95.3
2023-01-26T05:07:16.863Z,95.2
2023-01-26T05:08:17.395Z,95.3
2023-01-26T05:09:16.903Z,95.3
2023-01-26T05:10:18.037Z,95.3
2023-01-26T05:11:16.626Z,95.3
2023-01-26T05:12:16.521Z,95.3
2023-01-26T05:13:17.074Z,95.3
2023-01-26T05:14:16.581Z,95.4
2023-01-26T05:15:17.070Z,95.4
2023-01-26T05:16:16.599Z,95.4
2023-01-26T05:17:17.101Z,95.4
2023-01-26T05:18:16.633Z,95.4
2023-01-26T05:19:17.128Z,95.4
2023-01-26T05:20:16.637Z,95.4
2023-01-26T05:21:17.163Z,95.4
2023-01-26T05:22:16.630Z,95.3
2023-01-26T05:23:17.125Z,95.4
2023-01-26T05:24:16.740Z,95.4
2023-01-26T05:25:17.252Z,95.3
2023-01-26T05:26:16.766Z,95.4
2023-01-26T05:27:17.239Z,95.4
2023-01-26T05:28:16.734Z,95.4
2023-01-26T05:29:17.211Z,95.4
2023-01-26T05:30:17.366Z,95.5
2023-01-26T05:31:17.104Z,95.5
2023-01-26T05:32:16.818Z,95.5
2023-01-26T05:33:17.317Z,95.5
2023-01-26T05:34:16.857Z,95.4
2023-01-26T05:35:17.384Z,95.4
2023-01-26T05:36:16.902Z,95.4
2023-01-26T05:37:17.400Z,95.3
2023-01-26T05:38:16.938Z,95.3
2023-01-26T05:39:17.433Z,95.3
2023-01-26T05:40:16.969Z,95.3
2023-01-26T05:41:16.503Z,95.4
2023-01-26T05:42:17.036Z,95.4
2023-01-26T05:43:16.565Z,95.4
2023-01-26T05:44:17.146Z,95.4
2023-01-26T05:45:16.650Z,95.4
2023-01-26T05:46:17.248Z,95.4
2023-01-26T05:47:16.742Z,95.4
2023-01-26T05:48:17.245Z,95.5
2023-01-26T05:49:16.756Z,95.5
2023-01-26T05:50:17.255Z,95.5
2023-01-26T05:51:16.742Z,95.5
2023-01-26T05:52:17.316Z,95.4
2023-01-26T05:53:16.883Z,95.6
2023-01-26T05:54:17.363Z,95.6
2023-01-26T05:55:16.857Z,95.6
2023-01-26T05:56:17.356Z,95.6
2023-01-26T05:57:16.874Z,95.7
2023-01-26T05:58:17.393Z,95.7
2023-01-26T05:59:16.915Z,95.6
2023-01-26T06:00:17.404Z,95.7
2023-01-26T06:01:16.904Z,95.6
2023-01-26T06:02:17.005Z,95.7
2023-01-26T06:03:16.533Z,96.0
2023-01-26T06:04:17.125Z,96.0
2023-01-26T06:05:16.624Z,96.0
2023-01-26T06:06:17.110Z,96.1
2023-01-26T06:07:16.664Z,96.1
2023-01-26T06:08:17.209Z,96.0
2023-01-26T06:09:16.730Z,96.1
2023-01-26T06:10:17.263Z,96.1
2023-01-26T06:11:16.746Z,95.9
2023-01-26T06:12:16.562Z,96.0
2023-01-26T06:13:17.053Z,96.0
2023-01-26T06:14:16.549Z,95.9
2023-01-26T06:15:17.118Z,96.0
2023-01-26T06:16:16.674Z,96.0
2023-01-26T06:17:17.214Z,96.0
2023-01-26T06:18:16.715Z,96.0
2023-01-26T06:19:17.208Z,96.0
2023-01-26T06:20:16.705Z,96.0
2023-01-26T06:21:17.226Z,96.0
2023-01-26T06:22:16.937Z,96.0
2023-01-26T06:23:17.481Z,96.0
2023-01-26T06:24:17.049Z,96.2
2023-01-26T06:25:16.576Z,96.3
2023-01-26T06:26:17.092Z,96.2
2023-01-26T06:27:16.580Z,96.2
2023-01-26T06:28:17.048Z,96.2
2023-01-26T06:29:16.530Z,96.2
2023-01-26T06:30:17.267Z,96.1
2023-01-26T06:31:16.916Z,96.2
2023-01-26T06:32:16.946Z,96.2
2023-01-26T06:33:16.460Z,96.1
2023-01-26T06:34:16.961Z,96.1
2023-01-26T06:35:16.488Z,96.1
2023-01-26T06:36:16.997Z,96.1
2023-01-26T06:37:16.500Z,96.1
2023-01-26T06:38:17.024Z,96.1
2023-01-26T06:39:16.518Z,96.1
2023-01-26T06:40:17.035Z,96.1
2023-01-26T06:41:16.524Z,96.0
2023-01-26T06:42:17.101Z,96.1
2023-01-26T06:43:16.616Z,96.2
2023-01-26T06:44:17.098Z,96.3
2023-01-26T06:45:16.599Z,96.3
2023-01-26T06:46:17.173Z,96.3
2023-01-26T06:47:16.696Z,96.3
2023-01-26T06:48:17.230Z,96.2
2023-01-26T06:49:16.764Z,96.3
2023-01-26T06:50:17.295Z,96.3
2023-01-26T06:51:16.840Z,96.3
2023-01-26T06:52:17.233Z,96.3
2023-01-26T06:53:16.739Z,96.3
2023-01-26T06:54:17.232Z,96.3
2023-01-26T06:55:16.740Z,96.3
2023-01-26T06:56:17.238Z,96.3
2023-01-26T06:57:16.747Z,96.2
2023-01-26T06:58:17.246Z,96.2
2023-01-26T06:59:16.733Z,96.2
2023-01-26T07:00:17.240Z,96.2
2023-01-26T07:01:16.772Z,96.2
2023-01-26T07:02:17.148Z,96.1
2023-01-26T07:03:16.682Z,96.1
2023-01-26T07:04:17.192Z,96.1
2023-01-26T07:05:16.684Z,96.0
2023-01-26T07:06:17.195Z,96.1
2023-01-26T07:07:16.722Z,96.1
2023-01-26T07:08:17.229Z,96.1
2023-01-26T07:09:16.736Z,96.1
2023-01-26T07:10:17.288Z,96.1
2023-01-26T07:11:16.847Z,96.0
2023-01-26T07:12:17.252Z,96.0
2023-01-26T07:13:16.774Z,96.1
2023-01-26T07:14:17.293Z,96.1
2023-01-26T07:15:16.832Z,96.0
2023-01-26T07:16:17.368Z,96.0
2023-01-26T07:17:16.881Z,95.9
2023-01-26T07:18:17.395Z,96.0
2023-01-26T07:19:16.865Z,96.0
2023-01-26T07:20:17.378Z,96.0
2023-01-26T07:21:16.871Z,96.0
2023-01-26T07:22:17.373Z,96.0
2023-01-26T07:23:16.876Z,96.0
2023-01-26T07:24:17.517Z,96.0
2023-01-26T07:25:17.024Z,96.0
2023-01-26T07:26:16.515Z,96.0
2023-01-26T07:27:17.058Z,96.0
2023-01-26T07:28:16.621Z,96.0
2023-01-26T07:29:17.134Z,96.0
2023-01-26T07:30:16.667Z,96.1
2023-01-26T07:31:17.462Z,96.3
2023-01-26T07:32:16.468Z,96.3
2023-01-26T07:33:16.967Z,96.3
2023-01-26T07:34:16.461Z,96.3
2023-01-26T07:35:17.008Z,96.5
2023-01-26T07:36:16.552Z,96.4
2023-01-26T07:37:17.077Z,96.4
2023-01-26T07:38:16.614Z,96.5
2023-01-26T07:39:17.112Z,96.6
2023-01-26T07:40:16.634Z,96.7
2023-01-26T07:41:17.139Z,96.7
2023-01-26T07:42:16.746Z,96.6
2023-01-26T07:43:17.306Z,96.4
2023-01-26T07:44:16.929Z,96.4
2023-01-26T07:45:17.431Z,96.4
2023-01-26T07:46:17.005Z,96.3
2023-01-26T07:47:16.537Z,96.3
2023-01-26T07:48:17.080Z,96.2
2023-01-26T07:49:16.614Z,96.2
2023-01-26T07:50:17.099Z,96.1
2023-01-26T07:51:16.603Z,96.1
2023-01-26T07:52:17.289Z,96.2
2023-01-26T07:53:16.796Z,96.2
2023-01-26T07:54:17.349Z,96.1
2023-01-26T07:55:16.854Z,96.1
2023-01-26T07:56:17.343Z,96.0
2023-01-26T07:57:16.827Z,96.0
2023-01-26T07:58:17.308Z,95.8
2023-01-26T07:59:16.791Z,95.8
2023-01-26T08:00:17.300Z,95.8
2023-01-26T08:01:16.858Z,95.8
2023-01-26T08:02:16.726Z,95.8
2023-01-26T08:03:17.253Z,95.8
2023-01-26T08:04:16.742Z,95.8
2023-01-26T08:05:17.440Z,95.7
2023-01-26T08:06:16.956Z,95.8
2023-01-26T08:07:16.560Z,95.8
2023-01-26T08:08:17.038Z,95.7
2023-01-26T08:09:16.553Z,95.7
2023-01-26T08:10:17.059Z,95.7
2023-01-26T08:11:16.585Z,95.6
2023-01-26T08:12:17.420Z,95.6
2023-01-26T08:13:34.967Z,95.5
2023-01-26T08:14:16.910Z,95.6
2023-01-26T08:15:17.418Z,95.6
2023-01-26T08:16:17.002Z,95.6
2023-01-26T08:17:16.589Z,95.6
2023-01-26T08:18:17.114Z,95.6
2023-01-26T08:19:16.653Z,95.5
2023-01-26T08:20:17.200Z,95.5
2023-01-26T08:21:16.719Z,95.4
2023-01-26T08:22:17.196Z,95.5
2023-01-26T08:23:16.747Z,95.5
2023-01-26T08:24:17.363Z,95.5
2023-01-26T08:25:16.871Z,95.4
2023-01-26T08:26:17.458Z,95.3
2023-01-26T08:27:17.005Z,95.2
2023-01-26T08:28:16.527Z,95.3
2023-01-26T08:29:17.012Z,95.2
2023-01-26T08:30:16.566Z,95.2
2023-01-26T08:31:17.293Z,95.1
2023-01-26T08:32:16.657Z,95.1
2023-01-26T08:33:17.141Z,95.1
2023-01-26T08:34:16.680Z,95.2
2023-01-26T08:35:17.174Z,95.1
2023-01-26T08:36:16.655Z,95.1
2023-01-26T08:37:17.155Z,95.1
2023-01-26T08:38:16.698Z,95.2
2023-01-26T08:39:17.208Z,95.1
2023-01-26T08:40:16.728Z,95.2
2023-01-26T08:41:17.262Z,95.1
2023-01-26T08:42:16.599Z,94.8
2023-01-26T08:43:17.093Z,94.7
2023-01-26T08:44:16.607Z,94.9
2023-01-26T08:45:17.109Z,94.9
2023-01-26T08:46:16.898Z,95.1
2023-01-26T08:47:17.444Z,95.1
2023-01-26T08:48:16.921Z,95.1
2023-01-26T08:49:17.428Z,95.2
2023-01-26T08:50:16.922Z,95.1
2023-01-26T08:51:17.405Z,95.1
2023-01-26T08:52:17.033Z,94.9
2023-01-26T08:53:16.554Z,94.7
2023-01-26T08:54:17.062Z,94.7
2023-01-26T08:55:16.578Z,94.7
2023-01-26T08:56:17.076Z,94.5
2023-01-26T08:57:16.581Z,94.1
2023-01-26T08:58:17.103Z,93.8
2023-01-26T08:59:16.649Z,93.9
2023-01-26T09:00:17.142Z,93.9
2023-01-26T09:01:16.692Z,93.9
2023-01-26T09:02:17.403Z,93.7
2023-01-26T09:03:17.147Z,93.5
2023-01-26T09:04:16.698Z,93.5
2023-01-26T09:05:17.170Z,93.5
2023-01-26T09:06:16.689Z,93.7
2023-01-26T09:07:17.243Z,93.8
2023-01-26T09:08:16.754Z,93.8
2023-01-26T09:09:17.267Z,93.8
2023-01-26T09:10:16.798Z,93.9
2023-01-26T09:11:17.339Z,93.9
2023-01-26T09:12:16.761Z,93.9
2023-01-26T09:13:17.280Z,94.1
2023-01-26T09:14:16.766Z,94.2
2023-01-26T09:15:17.272Z,94.2
2023-01-26T09:16:16.793Z,94.4
2023-01-26T09:17:17.364Z,94.5
2023-01-26T09:18:16.852Z,94.5
2023-01-26T09:19:17.333Z,94.5
2023-01-26T09:20:16.860Z,94.5
2023-01-26T09:21:17.514Z,94.5
2023-01-26T09:22:16.930Z,94.5
2023-01-26T09:23:17.444Z,94.5
2023-01-26T09:24:17.110Z,94.4
2023-01-26T09:25:16.655Z,94.5
2023-01-26T09:26:17.164Z,94.5
2023-01-26T09:27:16.704Z,94.5
2023-01-26T09:28:17.228Z,94.5
2023-01-26T09:29:16.708Z,94.3
2023-01-26T09:30:17.309Z,94.3
2023-01-26T09:31:17.088Z,94.3
2023-01-26T09:32:17.475Z,94.3
2023-01-26T09:33:17.005Z,94.3
2023-01-26T09:34:16.737Z,94.3
2023-01-26T09:35:18.306Z,94.3
2023-01-26T09:36:16.902Z,94.2
2023-01-26T09:37:17.456Z,94.1
2023-01-26T09:38:17.048Z,94.1
2023-01-26T09:39:16.555Z,94.0
2023-01-26T09:40:17.063Z,93.9
2023-01-26T09:41:16.546Z,94.0
2023-01-26T09:42:16.985Z,93.9
2023-01-26T09:43:16.486Z,93.9
2023-01-26T09:44:16.972Z,94.0
2023-01-26T09:45:16.537Z,93.9
2023-01-26T09:46:17.140Z,93.8
2023-01-26T09:47:16.698Z,93.9
2023-01-26T09:48:17.193Z,93.9
2023-01-26T09:49:16.701Z,93.7
2023-01-26T09:50:17.195Z,93.9
2023-01-26T09:51:16.703Z,94.0
2023-01-26T09:52:17.430Z,94.1
2023-01-26T09:53:16.908Z,94.2
2023-01-26T09:54:17.438Z,94.1
2023-01-26T09:55:17.706Z,94.2
2023-01-26T09:56:17.450Z,94.3
2023-01-26T09:57:16.942Z,94.2
2023-01-26T09:58:17.439Z,94.2
2023-01-26T09:59:16.960Z,94.2
2023-01-26T10:00:16.493Z,94.0
2023-01-26T10:01:17.099Z,94.1
2023-01-26T10:02:16.806Z,94.1
2023-01-26T10:03:17.318Z,94.0
2023-01-26T10:04:16.812Z,93.9
2023-01-26T10:05:17.299Z,93.9
2023-01-26T10:06:16.802Z,93.9
2023-01-26T10:07:17.347Z,93.9
2023-01-26T10:08:16.856Z,93.9
2023-01-26T10:09:17.388Z,93.9
2023-01-26T10:10:16.874Z,93.8
2023-01-26T10:11:17.405Z,93.7
2023-01-26T10:12:16.903Z,93.7
2023-01-26T10:13:17.448Z,93.6
2023-01-26T10:14:16.959Z,93.6
2023-01-26T10:15:17.483Z,93.6
2023-01-26T10:16:17.011Z,93.5
2023-01-26T10:17:16.542Z,93.3
2023-01-26T10:18:17.023Z,93.2
2023-01-26T10:19:16.491Z,93.2
2023-01-26T10:20:17.060Z,93.5
2023-01-26T10:21:16.557Z,93.5
2023-01-26T10:22:16.909Z,93.4
2023-01-26T10:23:17.408Z,93.5
2023-01-26T10:24:16.970Z,93.4
2023-01-26T10:25:16.612Z,93.2
2023-01-26T10:26:17.223Z,93.3
2023-01-26T10:27:16.732Z,93.0
2023-01-26T10:28:17.263Z,93.1
2023-01-26T10:29:16.801Z,93.2
2023-01-26T10:30:17.469Z,93.2
2023-01-26T10:31:17.674Z,92.9
2023-01-26T10:32:16.655Z,92.9
2023-01-26T10:33:17.557Z,93.5
2023-01-26T10:34:17.282Z,93.6
2023-01-26T10:35:16.789Z,93.5
2023-01-26T10:36:17.271Z,93.5
2023-01-26T10:37:16.765Z,93.5
2023-01-26T10:38:17.276Z,93.4
2023-01-26T10:39:16.791Z,93.4
2023-01-26T10:40:17.313Z,93.3
2023-01-26T10:41:16.842Z,93.1
2023-01-26T10:42:16.620Z,92.9
2023-01-26T10:43:17.123Z,92.8
2023-01-26T10:44:16.597Z,93.0
2023-01-26T10:45:17.111Z,93.0
2023-01-26T10:46:16.648Z,93.0
2023-01-26T10:47:17.197Z,92.9
2023-01-26T10:48:16.681Z,92.7
2023-01-26T10:49:17.206Z,92.6
2023-01-26T10:50:16.750Z,92.3
2023-01-26T10:51:17.275Z,92.4
2023-01-26T10:52:16.646Z,92.4
2023-01-26T10:53:17.159Z,92.4
2023-01-26T10:54:16.705Z,92.4
2023-01-26T10:55:17.211Z,92.3
2023-01-26T10:56:16.718Z,92.4
2023-01-26T10:57:17.215Z,92.2
2023-01-26T10:58:16.753Z,92.0
2023-01-26T10:59:17.239Z,91.9
2023-01-26T11:00:16.778Z,92.1
2023-01-26T11:01:17.288Z,92.1
2023-01-26T11:02:16.785Z,92.3
2023-01-26T11:03:17.313Z,92.5
2023-01-26T11:04:17.149Z,92.3
2023-01-26T11:05:16.844Z,92.3
2023-01-26T11:06:17.361Z,92.2
2023-01-26T11:07:16.899Z,92.1
2023-01-26T11:08:17.408Z,92.2
2023-01-26T11:09:16.913Z,92.2
2023-01-26T11:10:17.598Z,91.9
2023-01-26T11:11:17.284Z,92.1
2023-01-26T11:12:16.742Z,92.3
2023-01-26T11:13:17.303Z,92.3
2023-01-26T11:14:16.845Z,92.0
2023-01-26T11:15:17.316Z,92.0
2023-01-26T11:16:17.118Z,92.4
2023-01-26T11:17:16.661Z,93.0
2023-01-26T11:18:17.159Z,93.2
2023-01-26T11:19:16.665Z,93.0
2023-01-26T11:20:17.185Z,92.8
2023-01-26T11:21:16.669Z,92.4
2023-01-26T11:22:17.099Z,92.4
2023-01-26T11:23:16.594Z,92.5
2023-01-26T11:24:17.219Z,92.8
2023-01-26T11:25:16.837Z,92.9
2023-01-26T11:26:17.379Z,92.9
2023-01-26T11:27:16.888Z,92.8
2023-01-26T11:28:17.377Z,92.8
2023-01-26T11:29:16.871Z,92.4
2023-01-26T11:30:17.363Z,92.7
2023-01-26T11:31:17.101Z,92.7
2023-01-26T11:32:17.374Z,92.6
2023-01-26T11:33:16.887Z,92.6
2023-01-26T11:34:17.422Z,92.6
2023-01-26T11:35:16.948Z,92.1
2023-01-26T11:36:17.453Z,92.1
2023-01-26T11:37:16.970Z,92.2
2023-01-26T11:38:16.515Z,92.2
2023-01-26T11:39:17.056Z,92.1
2023-01-26T11:40:16.555Z,92.2
2023-01-26T11:41:17.021Z,92.1
2023-01-26T11:42:16.928Z,91.9
2023-01-26T11:43:17.439Z,92.0
2023-01-26T11:44:16.938Z,91.9
2023-01-26T11:45:17.462Z,91.8
2023-01-26T11:46:16.964Z,91.4
2023-01-26T11:47:16.511Z,91.5
2023-01-26T11:48:17.014Z,92.1
2023-01-26T11:49:16.529Z,92.1
2023-01-26T11:50:17.053Z,92.1
2023-01-26T11:51:16.583Z,92.4
2023-01-26T11:52:17.256Z,92.8
2023-01-26T11:53:16.766Z,92.8
2023-01-26T11:54:17.261Z,92.6
2023-01-26T11:55:16.767Z,92.5
2023-01-26T11:56:17.266Z,92.5
2023-01-26T11:57:16.765Z,92.5
2023-01-26T11:58:17.266Z,92.0
2023-01-26T11:59:16.750Z,92.2
2023-01-26T12:00:30.912Z,92.2
2023-01-26T12:01:16.552Z,92.3
2023-01-26T12:02:17.491Z,92.1
2023-01-26T12:03:17.148Z,92.1
2023-01-26T12:04:16.641Z,92.1
2023-01-26T12:05:17.111Z,92.2
2023-01-26T12:06:16.633Z,92.3
2023-01-26T12:07:17.158Z,92.3
2023-01-26T12:08:16.673Z,92.2
2023-01-26T12:09:17.175Z,92.1
2023-01-26T12:10:16.669Z,92.1
2023-01-26T12:11:17.172Z,92.2
2023-01-26T12:12:16.699Z,92.1
2023-01-26T12:13:17.213Z,92.0
2023-01-26T12:14:16.722Z,91.3
2023-01-26T12:15:17.244Z,91.3
2023-01-26T12:16:16.941Z,91.2
2023-01-26T12:17:19.127Z,91.4
2023-01-26T12:18:16.701Z,91.2
2023-01-26T12:19:17.223Z,91.4
2023-01-26T12:20:16.762Z,91.6
2023-01-26T12:21:17.298Z,91.7
2023-01-26T12:22:16.686Z,91.7
2023-01-26T12:23:17.208Z,91.7
2023-01-26T12:24:52.160Z,91.7
2023-01-26T12:25:20.548Z,91.7
2023-01-26T12:26:17.165Z,91.5
2023-01-26T12:27:16.672Z,91.4
2023-01-26T12:28:17.208Z,91.5
2023-01-26T12:29:16.721Z,91.5
2023-01-26T12:30:17.241Z,91.3
2023-01-26T12:31:17.012Z,91.4
2023-01-26T12:32:16.593Z,91.5
2023-01-26T12:33:17.082Z,91.5
2023-01-26T12:34:16.596Z,91.6
2023-01-26T12:35:17.136Z,91.6
2023-01-26T12:36:16.640Z,91.5
2023-01-26T12:37:17.153Z,91.5
2023-01-26T12:38:18.650Z,91.5
2023-01-26T12:39:17.176Z,91.4
2023-01-26T12:40:16.681Z,91.1
2023-01-26T12:41:17.206Z,91.5
2023-01-26T12:42:16.571Z,91.5
2023-01-26T12:43:17.071Z,91.7
2023-01-26T12:44:16.569Z,91.6
2023-01-26T12:45:18.801Z,91.5
2023-01-26T12:46:17.372Z,91.6
2023-01-26T12:47:16.873Z,91.5
2023-01-26T12:48:17.379Z,91.6
2023-01-26T12:49:16.861Z,91.6
2023-01-26T12:50:17.852Z,91.7
2023-01-26T12:51:17.359Z,91.9
2023-01-26T12:52:17.277Z,91.8
2023-01-26T12:53:16.790Z,91.7
2023-01-26T12:54:17.305Z,91.7
2023-01-26T12:55:16.833Z,91.4
2023-01-26T12:56:17.325Z,91.6
2023-01-26T12:57:16.810Z,91.6
2023-01-26T12:58:17.333Z,91.6
2023-01-26T12:59:47.462Z,91.6
2023-01-26T13:00:17.366Z,91.6
2023-01-26T13:01:16.894Z,91.6
2023-01-26T13:02:16.823Z,91.5
2023-01-26T13:03:17.366Z,91.5
2023-01-26T13:04:16.942Z,91.5
2023-01-26T13:05:16.485Z,91.6
2023-01-26T13:06:17.001Z,91.5
2023-01-26T13:07:16.550Z,91.5
2023-01-26T13:08:17.057Z,91.5
2023-01-26T13:09:16.598Z,91.7
2023-01-26T13:10:17.116Z,91.7
2023-01-26T13:11:16.607Z,91.8
2023-01-26T13:12:17.481Z,91.8
2023-01-26T13:13:16.968Z,91.7
2023-01-26T13:14:17.462Z,91.6
2023-01-26T13:15:16.965Z,91.7
2023-01-26T13:16:17.694Z,91.7
2023-01-26T13:17:17.243Z,91.7
2023-01-26T13:18:16.773Z,91.7
2023-01-26T13:19:17.274Z,91.7